Time;durP1;ratioP1;P1;durP2;ratioP2;P2;SDS_P1;SDS_P2;PMS_P1;PMS_P2;Temp;Humidity;BMP_temperature;BMP_pressure;BME280_temperature;BME280_humidity;BME280_pressure;Samples;Min_cycle;Max_cycle;Signal;HPM_P1;HPM_P2
2023/07/13 01:59:12;;;;;;;5.15;1.88;;;;;;;13.85;100.00;101334.47;4959151;28;20030;-96
2023/07/13 02:30:40;;;;;;;5.00;2.10;;;;;;;13.40;100.00;101312.56;4956415;29;20036;-95
2023/07/13 03:12:51;;;;;;;11.80;2.38;;;;;;;13.17;100.00;101349.59;4958690;29;20035;-96
2023/07/13 04:31:21;;;;;;;12.95;3.47;;;;;;;14.04;100.00;101353.66;5140053;23;20047;-96
2023/07/13 04:39:44;;;;;;;16.58;4.18;;;;;;;14.36;100.00;101351.75;5047282;23;20052;-96
2023/07/13 05:33:58;;;;;;;27.38;8.32;;;;;;;15.78;100.00;101412.09;4949668;29;20048;-96
2023/07/13 05:36:30;;;;;;;24.60;7.50;;;;;;;16.02;100.00;101427.66;4951564;29;20031;-96
2023/07/13 05:38:56;;;;;;;26.85;7.90;;;;;;;16.16;100.00;101442.16;4947137;29;20037;-96
2023/07/13 05:41:21;;;;;;;24.83;7.90;;;;;;;16.20;100.00;101450.50;4951179;29;20085;-96
2023/07/13 05:43:47;;;;;;;21.60;7.90;;;;;;;16.12;100.00;101427.59;4951067;29;20016;-96
2023/07/13 05:46:12;;;;;;;24.97;8.53;;;;;;;16.09;100.00;101411.91;4945541;29;20031;-96
2023/07/13 05:48:39;;;;;;;19.80;7.43;;;;;;;16.36;100.00;101437.69;4953346;29;20027;-95
2023/07/13 05:51:04;;;;;;;25.23;8.50;;;;;;;16.53;100.00;101458.13;4954711;29;20042;-96
2023/07/13 05:53:30;;;;;;;28.73;8.97;;;;;;;16.34;100.00;101429.84;4950951;29;20290;-96
2023/07/13 05:55:57;;;;;;;23.27;8.13;;;;;;;16.50;100.00;101435.97;4958695;29;20019;-96
2023/07/13 05:58:22;;;;;;;25.80;8.23;;;;;;;16.61;100.00;101433.97;4950768;29;20534;-95
2023/07/13 06:00:49;;;;;;;27.80;10.30;;;;;;;16.81;100.00;101449.22;4942170;29;20116;-96
2023/07/13 06:03:15;;;;;;;23.50;9.17;;;;;;;16.73;100.00;101433.59;4946510;29;20096;-96
2023/07/13 06:05:41;;;;;;;22.33;8.43;;;;;;;16.75;100.00;101428.72;4932789;29;20043;-96
2023/07/13 06:08:08;;;;;;;26.67;8.35;;;;;;;16.96;100.00;101455.63;4954205;29;20036;-96
2023/07/13 06:10:38;;;;;;;26.85;7.97;;;;;;;17.24;100.00;101480.25;4935800;29;20059;-96
2023/07/13 06:13:04;;;;;;;27.10;8.60;;;;;;;17.47;100.00;101481.34;4954827;28;20095;-96
2023/07/13 06:15:32;;;;;;;24.77;7.97;;;;;;;17.71;100.00;101470.47;4923642;29;20103;-96
2023/07/13 06:18:00;;;;;;;24.70;8.98;;;;;;;17.92;100.00;101445.81;4955462;29;20099;-96
2023/07/13 06:20:29;;;;;;;22.02;8.18;;;;;;;18.45;100.00;101492.81;4937473;29;20480;-96
2023/07/13 06:22:56;;;;;;;21.23;8.77;;;;;;;18.50;100.00;101490.03;4949597;29;20044;-96
2023/07/13 06:25:22;;;;;;;25.17;8.97;;;;;;;18.28;99.79;101461.59;4951986;29;20356;-96
2023/07/13 06:27:48;;;;;;;22.30;8.48;;;;;;;18.29;99.00;101454.28;4949589;29;20032;-96
2023/07/13 06:30:21;;;;;;;21.05;7.82;;;;;;;18.57;100.00;101497.78;4937138;29;20111;-96
2023/07/13 06:32:47;;;;;;;23.00;8.27;;;;;;;18.60;99.30;101495.31;4954846;29;20043;-95
2023/07/13 06:35:15;;;;;;;23.75;9.07;;;;;;;18.40;98.43;101482.84;4921502;29;20043;-96
2023/07/13 06:37:47;;;;;;;25.87;9.10;;;;;;;18.25;99.11;101470.34;4954617;29;20031;-96
2023/07/13 06:40:13;;;;;;;24.70;8.77;;;;;;;18.49;98.87;101503.91;4954440;29;20699;-96
2023/07/13 06:42:39;;;;;;;20.85;8.82;;;;;;;18.07;99.33;101466.50;4949821;29;20055;-96
2023/07/13 06:45:07;;;;;;;18.65;8.50;;;;;;;18.24;100.00;101516.72;4951487;28;20027;-96
2023/07/13 06:47:54;;;;;;;24.27;8.52;;;;;;;17.84;100.00;101473.59;4949865;29;20039;-96
2023/07/13 06:50:19;;;;;;;26.27;8.70;;;;;;;18.02;100.00;101515.38;4950474;29;20447;-96
2023/07/13 06:52:48;;;;;;;19.83;8.93;;;;;;;17.96;100.00;101508.41;4951600;29;20036;-96
2023/07/13 06:55:16;;;;;;;23.70;8.03;;;;;;;18.03;100.00;101518.91;4935897;29;20291;-96
2023/07/13 06:58:01;;;;;;;20.17;8.25;;;;;;;18.11;100.00;101504.69;4951944;29;20067;-96
2023/07/13 07:00:28;;;;;;;23.95;8.90;;;;;;;18.37;99.41;101496.19;4953790;29;20035;-96
2023/07/13 07:02:59;;;;;;;19.45;8.50;;;;;;;18.53;98.75;101532.84;4953165;29;20039;-96
2023/07/13 07:05:30;;;;;;;21.27;8.88;;;;;;;18.22;98.75;101486.38;4951927;29;20020;-96
2023/07/13 07:08:29;;;;;;;21.65;7.97;;;;;;;18.35;99.39;101501.09;4959274;29;20023;-96
2023/07/13 07:10:55;;;;;;;23.20;7.90;;;;;;;18.57;99.24;101490.47;4968769;28;20039;-96
2023/07/13 07:13:21;;;;;;;19.43;8.63;;;;;;;18.76;96.76;101503.19;4952998;28;20027;-96
2023/07/13 07:15:46;;;;;;;19.67;7.40;;;;;;;18.68;95.86;101484.84;4956489;29;20026;-96
2023/07/13 07:18:18;;;;;;;25.37;7.50;;;;;;;19.02;94.99;101497.34;4957344;29;20020;-96
2023/07/13 07:20:44;;;;;;;19.55;7.72;;;;;;;19.02;93.80;101483.75;4953790;29;20031;-96
2023/07/13 07:23:10;;;;;;;21.42;7.57;;;;;;;19.07;93.31;101494.53;4944605;29;20055;-96
2023/07/13 07:25:41;;;;;;;20.85;7.85;;;;;;;19.34;93.55;101525.56;4932780;29;20027;-96
2023/07/13 07:28:30;;;;;;;17.70;7.05;;;;;;;19.39;92.55;101536.31;4951985;28;20044;-96
2023/07/13 07:30:57;;;;;;;18.65;7.03;;;;;;;19.15;92.82;101493.84;4950854;29;20059;-96
2023/07/13 07:33:23;;;;;;;19.85;7.13;;;;;;;19.18;92.82;101506.03;4952193;29;20019;-96
2023/07/13 07:35:48;;;;;;;19.50;7.40;;;;;;;19.46;91.45;101516.91;4956071;29;20015;-96
2023/07/13 07:38:17;;;;;;;20.15;7.25;;;;;;;19.43;91.35;101498.50;4956815;29;20031;-96
2023/07/13 07:40:43;;;;;;;19.42;6.82;;;;;;;19.93;89.69;101542.09;4931556;29;20035;-96
2023/07/13 07:43:13;;;;;;;16.77;6.67;;;;;;;20.05;86.42;101525.25;4946308;29;20012;-96
2023/07/13 07:45:39;;;;;;;20.00;6.93;;;;;;;20.06;87.08;101505.09;4949619;29;20276;-96
2023/07/13 07:48:16;;;;;;;16.98;6.20;;;;;;;20.37;85.28;101515.28;4950600;29;20056;-96
2023/07/13 07:50:42;;;;;;;16.27;6.70;;;;;;;20.79;83.06;101538.84;4951508;29;20020;-96
2023/07/13 07:53:10;;;;;;;18.27;6.28;;;;;;;20.73;83.12;101505.44;4948519;28;20463;-95
2023/07/13 07:55:36;;;;;;;12.95;5.88;;;;;;;20.90;81.55;101520.34;4949340;29;20020;-96
2023/07/13 07:58:01;;;;;;;9.70;5.53;;;;;;;21.27;81.24;101540.88;4942968;29;20086;-96
2023/07/13 08:00:30;;;;;;;16.83;5.35;;;;;;;21.16;78.88;101506.84;4924924;29;20055;-95
2023/07/13 08:03:03;;;;;;;13.88;5.82;;;;;;;21.33;78.83;101534.19;4936123;29;20032;-96
2023/07/13 08:05:53;;;;;;;14.95;5.57;;;;;;;21.31;78.14;101509.16;4957781;29;20031;-96
2023/07/13 08:08:21;;;;;;;19.23;5.90;;;;;;;21.53;76.81;101521.09;4954873;29;20040;-96
2023/07/13 08:10:50;;;;;;;16.55;5.40;;;;;;;21.78;76.53;101526.97;4956867;29;20043;-96
2023/07/13 08:13:18;;;;;;;16.65;5.28;;;;;;;22.05;74.45;101546.94;4981906;23;20142;-96
2023/07/13 08:15:47;;;;;;;11.20;4.33;;;;;;;21.81;73.64;101504.50;4933698;29;20036;-96
2023/07/13 08:18:28;;;;;;;13.03;4.67;;;;;;;21.99;75.61;101513.53;4942479;29;20300;-96
2023/07/13 08:21:03;;;;;;;13.48;4.80;;;;;;;22.22;72.51;101548.84;4935905;29;20028;-96
2023/07/13 08:23:33;;;;;;;15.48;4.68;;;;;;;22.09;73.14;101524.13;4935114;29;20436;-96
2023/07/13 08:26:01;;;;;;;10.13;3.95;;;;;;;22.20;71.88;101538.28;4938554;29;20180;-96
2023/07/13 08:28:33;;;;;;;10.00;4.13;;;;;;;22.62;72.37;101550.66;4937628;29;20027;-96
2023/07/13 08:31:07;;;;;;;9.82;4.00;;;;;;;22.93;67.96;101550.44;4940180;29;20051;-96
2023/07/13 08:33:53;;;;;;;10.35;3.83;;;;;;;22.84;66.62;101550.47;4934776;29;20056;-96
2023/07/13 08:36:29;;;;;;;12.38;3.85;;;;;;;22.56;67.23;101543.75;4937142;29;20028;-96
2023/07/13 08:39:16;;;;;;;12.20;3.72;;;;;;;22.82;67.81;101541.78;4938333;29;20034;-96
2023/07/13 08:41:46;;;;;;;8.30;3.70;;;;;;;22.99;66.26;101519.09;4939038;29;20017;-96
2023/07/13 08:44:48;;;;;;;9.40;3.83;;;;;;;23.05;67.17;101522.44;4940117;29;20308;-96
2023/07/13 08:47:17;;;;;;;12.38;3.95;;;;;;;22.83;64.40;101518.78;4941105;29;20020;-96
2023/07/13 08:49:46;;;;;;;9.63;3.92;;;;;;;22.83;62.81;101535.19;4939625;29;20017;-96
2023/07/13 08:52:57;;;;;;;11.68;3.88;;;;;;;22.68;65.44;101519.31;4940008;29;20020;-96
2023/07/13 08:55:35;;;;;;;6.88;3.63;;;;;;;23.04;63.82;101533.72;4939282;29;20020;-95
2023/07/13 08:58:20;;;;;;;7.40;3.38;;;;;;;22.90;64.66;101514.78;4939700;29;20055;-96
2023/07/13 09:01:22;;;;;;;9.13;3.50;;;;;;;22.86;64.17;101530.22;4936038;29;20084;-95
2023/07/13 09:04:09;;;;;;;9.82;4.00;;;;;;;22.85;65.18;101551.28;4952051;29;20031;-95
2023/07/13 09:06:59;;;;;;;10.02;3.78;;;;;;;22.53;65.72;101529.63;4939353;29;20028;-95
2023/07/13 09:09:55;;;;;;;8.73;3.60;;;;;;;22.38;66.74;101546.47;4933091;29;20031;-96
2023/07/13 09:17:50;;;;;;;10.75;3.72;;;;;;;22.68;65.45;101530.25;4950363;29;20052;-96
2023/07/13 09:20:28;;;;;;;12.20;3.60;;;;;;;23.05;64.31;101552.50;4950654;29;20019;-96
2023/07/13 09:23:00;;;;;;;10.38;3.60;;;;;;;23.53;62.05;101544.34;4952092;29;20030;-96
2023/07/13 09:25:36;;;;;;;15.98;3.90;;;;;;;23.78;58.24;101539.84;4951201;29;20043;-96
2023/07/13 09:28:18;;;;;;;8.27;3.35;;;;;;;23.68;58.34;101549.25;4954050;29;20103;-96
2023/07/13 09:31:15;;;;;;;7.80;3.63;;;;;;;23.43;59.69;101537.31;4954451;29;20084;-95
2023/07/13 09:33:42;;;;;;;8.63;3.50;;;;;;;23.17;58.67;101553.78;4929478;29;20026;-95
2023/07/13 09:36:38;;;;;;;7.17;3.67;;;;;;;23.33;61.21;101548.59;4957901;29;20480;-96
2023/07/13 09:39:26;;;;;;;9.53;3.67;;;;;;;23.65;57.66;101549.06;4958724;28;20331;-95
2023/07/13 09:42:10;;;;;;;8.15;3.70;;;;;;;23.83;58.28;101530.63;4960380;28;20015;-96
2023/07/13 09:44:40;;;;;;;10.07;3.47;;;;;;;24.13;56.76;101536.91;4958949;28;20039;-95
2023/07/13 09:47:22;;;;;;;7.78;3.40;;;;;;;24.44;55.52;101537.63;4955057;29;20032;-94
2023/07/13 09:49:47;;;;;;;11.05;3.53;;;;;;;24.64;52.16;101538.72;4955124;28;20020;-96
2023/07/13 09:52:16;;;;;;;8.17;3.17;;;;;;;24.76;54.06;101543.47;4951129;28;20062;-95
2023/07/13 09:54:48;;;;;;;7.63;3.47;;;;;;;24.74;51.72;101540.28;4944085;29;20035;-96
2023/07/13 09:57:19;;;;;;;6.03;3.10;;;;;;;24.91;51.92;101553.00;4955093;28;20104;-94
2023/07/13 09:59:49;;;;;;;9.02;3.05;;;;;;;24.90;50.36;101548.66;4951622;29;20059;-95
2023/07/13 10:02:35;;;;;;;6.57;2.90;;;;;;;25.45;52.60;101540.31;4942633;28;20024;-96
2023/07/13 10:05:06;;;;;;;7.25;2.90;;;;;;;25.92;48.26;101552.75;4939166;29;20051;-96
2023/07/13 10:07:38;;;;;;;7.07;2.60;;;;;;;25.67;47.24;101539.03;4938098;29;20472;-96
2023/07/13 10:10:17;;;;;;;7.07;2.90;;;;;;;25.65;48.50;101552.31;4942996;28;20038;-96
2023/07/13 10:12:44;;;;;;;8.87;2.67;;;;;;;24.95;48.21;101538.28;4945742;29;20032;-95
2023/07/13 10:15:19;;;;;;;9.93;3.00;;;;;;;24.58;50.93;101551.03;4949450;28;20272;-96
2023/07/13 10:17:47;;;;;;;7.47;3.05;;;;;;;24.94;50.11;101544.91;4948845;29;20031;-96
2023/07/13 10:20:14;;;;;;;6.88;2.90;;;;;;;24.99;50.81;101537.59;4947203;29;20027;-96
2023/07/13 10:22:57;;;;;;;6.22;2.83;;;;;;;25.04;50.30;101546.41;4943985;29;20031;-95
2023/07/13 10:25:25;;;;;;;6.95;2.65;;;;;;;25.20;49.93;101546.53;4947386;29;20083;-95
2023/07/13 10:27:54;;;;;;;7.57;2.45;;;;;;;25.53;47.91;101553.09;4951980;29;20050;-96
2023/07/13 10:30:29;;;;;;;12.18;2.63;;;;;;;25.72;46.86;101544.31;4951041;28;20126;-95
2023/07/13 10:33:02;;;;;;;6.32;2.15;;;;;;;25.74;46.66;101549.44;4951646;28;20502;-95
2023/07/13 10:35:31;;;;;;;6.47;2.67;;;;;;;25.70;47.49;101550.13;4952799;28;20030;-96
2023/07/13 10:38:06;;;;;;;6.63;2.50;;;;;;;25.70;48.24;101550.13;4951208;29;20019;-96
2023/07/13 10:41:06;;;;;;;7.80;2.80;;;;;;;25.54;47.97;101557.44;4943841;28;20325;-95
2023/07/13 10:43:44;;;;;;;7.80;2.58;;;;;;;25.22;48.80;101552.47;4927885;29;20039;-96
2023/07/13 10:46:26;;;;;;;7.63;2.30;;;;;;;24.61;52.43;101561.31;4944299;28;20024;-96
2023/07/13 10:54:16;;;;;;;9.63;2.90;;;;;;;20.36;97.32;101584.44;5000057;23;20051;-94
2023/07/13 10:56:43;;;;;;;9.07;3.58;;;;;;;19.57;100.00;101580.84;4941178;28;20074;-95
2023/07/13 10:59:08;;;;;;;12.63;3.85;;;;;;;19.08;100.00;101587.69;4945123;29;20279;-95
2023/07/13 11:02:01;;;;;;;6.87;3.93;;;;;;;19.10;100.00;101583.56;4951074;29;20056;-96
2023/07/13 11:07:27;;;;;;;13.68;5.28;;;;;;;19.28;100.00;101545.78;4997380;23;20071;-96
2023/07/13 11:10:00;;;;;;;11.93;5.10;;;;;;;19.55;100.00;101565.91;4959880;29;20064;-95
2023/07/13 11:43:33;;;;;;;11.93;4.27;;;;;;;25.69;67.39;101567.72;5780329;23;20330;-96
2023/07/13 11:46:35;;;;;;;5.50;3.75;;;;;;;26.22;67.05;101579.91;5057688;23;20032;-94
2023/07/13 11:49:16;;;;;;;6.28;4.03;;;;;;;26.09;58.19;101577.19;4955044;29;20062;-94
2023/07/13 11:51:43;;;;;;;9.15;3.70;;;;;;;26.19;53.17;101550.41;4956152;29;20020;-96
2023/07/13 11:54:51;;;;;;;7.88;3.50;;;;;;;26.66;56.46;101558.00;4953846;29;20103;-96
2023/07/13 11:57:25;;;;;;;7.20;3.42;;;;;;;27.30;51.10;101576.53;4947350;29;20066;-96
2023/07/13 11:59:54;;;;;;;7.10;3.58;;;;;;;27.20;50.16;101586.16;4945258;28;20027;-95
2023/07/13 12:02:33;;;;;;;8.00;3.22;;;;;;;26.80;51.18;101584.31;4945592;29;20023;-96
2023/07/13 12:05:02;;;;;;;8.02;3.45;;;;;;;26.44;49.33;101557.44;4946829;29;20024;-96
2023/07/13 12:07:33;;;;;;;13.37;3.23;;;;;;;26.43;52.38;101574.25;4950797;29;20023;-96
2023/07/13 12:10:23;;;;;;;5.77;3.37;;;;;;;26.34;56.06;101596.34;4945715;29;20284;-96
2023/07/13 12:12:53;;;;;;;6.18;3.50;;;;;;;25.77;52.54;101579.72;4947609;29;20027;-96
2023/07/13 12:15:21;;;;;;;6.18;3.50;;;;;;;25.31;52.30;101554.31;4947305;29;20038;-96
2023/07/13 12:17:47;;;;;;;8.00;3.50;;;;;;;25.29;54.57;101584.03;4948988;29;20046;-96
2023/07/13 12:20:27;;;;;;;7.43;3.88;;;;;;;24.60;55.10;101546.81;4951148;29;20028;-95
2023/07/13 12:22:53;;;;;;;6.95;3.58;;;;;;;24.91;53.54;101572.97;4950431;29;20608;-95
2023/07/13 12:25:21;;;;;;;7.82;3.50;;;;;;;24.88;52.51;101575.59;4950084;29;20051;-96
2023/07/13 12:27:49;;;;;;;10.32;2.92;;;;;;;24.88;53.30;101581.88;4943417;29;20039;-96
2023/07/13 12:30:35;;;;;;;6.87;2.80;;;;;;;24.72;54.63;101550.75;4954657;29;20043;-95
2023/07/13 12:33:11;;;;;;;8.53;3.40;;;;;;;25.01;52.52;101570.97;4947784;29;20309;-95
2023/07/13 12:35:52;;;;;;;6.72;2.83;;;;;;;24.89;52.52;101577.22;4947156;29;20050;-96
2023/07/13 12:38:21;;;;;;;5.88;2.70;;;;;;;24.73;51.33;101580.59;4952501;29;20059;-95
2023/07/13 12:40:51;;;;;;;7.70;3.13;;;;;;;24.49;51.21;101576.56;4939941;29;20055;-96
2023/07/13 12:43:17;;;;;;;4.22;2.65;;;;;;;24.70;49.31;101570.28;4939543;29;20700;-96
2023/07/13 12:46:01;;;;;;;4.70;2.80;;;;;;;24.93;51.31;101578.94;4942041;29;20031;-96
2023/07/13 12:48:26;;;;;;;8.18;3.30;;;;;;;25.12;49.85;101574.88;4945262;29;20036;-96
2023/07/13 12:50:55;;;;;;;5.73;3.10;;;;;;;25.29;49.12;101586.78;4942293;29;20102;-96
2023/07/13 12:53:30;;;;;;;9.40;3.03;;;;;;;25.41;48.00;101586.78;4945220;29;20463;-96
2023/07/13 12:56:01;;;;;;;4.75;3.33;;;;;;;25.32;46.72;101577.88;4943639;29;20023;-96
2023/07/13 12:58:39;;;;;;;5.32;2.92;;;;;;;25.44;47.88;101591.63;4942428;29;20019;-94
2023/07/13 13:01:05;;;;;;;8.10;2.80;;;;;;;25.27;49.38;101600.03;4946322;29;20023;-96
2023/07/13 13:03:33;;;;;;;10.73;2.80;;;;;;;24.87;51.93;101590.44;4945467;29;20652;-95
2023/07/13 13:06:04;;;;;;;6.73;2.60;;;;;;;24.68;50.41;101601.84;4946456;29;20279;-96
2023/07/13 13:08:34;;;;;;;4.00;2.70;;;;;;;24.67;50.16;101594.78;4957312;29;20020;-95
2023/07/13 13:11:01;;;;;;;3.70;2.75;;;;;;;24.63;50.13;101597.41;4946417;29;20074;-96
2023/07/13 13:13:27;;;;;;;5.15;2.97;;;;;;;24.60;50.38;101598.88;4946408;29;20055;-96
2023/07/13 13:15:53;;;;;;;5.93;3.17;;;;;;;24.66;48.96;101607.69;4947922;29;20036;-95
2023/07/13 13:18:21;;;;;;;6.53;2.92;;;;;;;24.54;51.02;101596.69;4949145;29;20105;-96
2023/07/13 13:20:48;;;;;;;4.45;2.65;;;;;;;24.34;50.08;101602.63;4949851;29;20031;-95
2023/07/13 13:23:17;;;;;;;4.50;2.83;;;;;;;24.26;49.13;101611.72;4943824;29;20110;-94
2023/07/13 13:25:45;;;;;;;5.90;2.60;;;;;;;24.17;50.30;101614.50;4945490;29;20066;-96
2023/07/13 13:28:16;;;;;;;5.95;3.03;;;;;;;24.06;50.37;101616.00;4945634;29;20031;-96
2023/07/13 13:30:43;;;;;;;5.78;3.00;;;;;;;24.29;50.79;101612.97;4944603;29;20591;-96
2023/07/13 13:33:14;;;;;;;8.25;2.80;;;;;;;24.63;49.32;101611.91;4938176;29;20052;-96
2023/07/13 13:35:40;;;;;;;6.83;3.20;;;;;;;25.00;47.61;101605.00;4937958;29;20024;-96
2023/07/13 13:38:13;;;;;;;5.47;3.10;;;;;;;25.64;48.05;101625.59;4940726;29;20306;-96
2023/07/13 13:40:39;;;;;;;7.22;3.53;;;;;;;25.93;46.35;101628.47;4907793;29;20055;-95
2023/07/13 13:43:15;;;;;;;5.47;3.50;;;;;;;25.79;47.24;101632.31;4940539;29;20008;-95
2023/07/13 13:45:40;;;;;;;6.17;3.30;;;;;;;25.75;45.62;101622.38;4939500;29;20300;-96
2023/07/13 13:48:15;;;;;;;7.90;3.10;;;;;;;25.55;46.18;101635.88;4951926;29;20283;-96
2023/07/13 13:50:44;;;;;;;4.25;3.30;;;;;;;25.53;46.13;101610.72;5026495;23;20066;-96
2023/07/13 13:53:13;;;;;;;7.40;2.97;;;;;;;25.63;45.79;101632.22;4946057;29;20035;-95
2023/07/13 13:55:44;;;;;;;4.73;2.97;;;;;;;25.40;46.31;101623.56;4955174;29;20064;-96
2023/07/13 13:58:10;;;;;;;7.27;2.93;;;;;;;25.21;47.01;101638.63;4946042;29;20279;-96
2023/07/13 14:00:37;;;;;;;5.50;2.97;;;;;;;25.00;47.13;101643.38;4942551;29;20146;-95
2023/07/13 14:03:04;;;;;;;5.90;2.92;;;;;;;24.77;47.75;101633.56;4943238;29;20044;-96
2023/07/13 14:05:30;;;;;;;5.68;2.72;;;;;;;24.56;47.40;101594.41;4947597;29;20019;-96
2023/07/13 14:08:00;;;;;;;3.10;2.30;;;;;;;24.55;47.00;101596.34;4945892;29;20028;-96
2023/07/13 14:10:27;;;;;;;5.80;2.80;;;;;;;24.50;48.23;101585.56;4943999;29;20024;-96
2023/07/13 14:12:57;;;;;;;4.75;2.53;;;;;;;24.47;47.70;101599.94;4945243;29;20026;-96
2023/07/13 14:15:26;;;;;;;3.45;2.53;;;;;;;24.75;48.62;101644.03;4944726;29;20126;-95
2023/07/13 14:17:57;;;;;;;4.28;2.58;;;;;;;24.65;47.82;101617.81;4947479;29;20039;-96
2023/07/13 14:20:25;;;;;;;5.97;2.40;;;;;;;25.16;48.16;101630.63;4953043;29;20035;-95
2023/07/13 14:22:52;;;;;;;3.92;2.40;;;;;;;25.58;46.99;101646.16;4949236;29;20034;-96
2023/07/13 14:25:21;;;;;;;5.80;2.60;;;;;;;25.76;46.30;101629.47;4952330;29;20055;-96
2023/07/13 14:27:51;;;;;;;4.50;2.60;;;;;;;25.78;45.96;101606.03;4936315;29;20367;-96
2023/07/13 14:30:26;;;;;;;3.92;2.28;;;;;;;26.05;45.49;101620.19;4954441;29;20055;-96
2023/07/13 14:32:54;;;;;;;5.65;2.38;;;;;;;25.92;44.88;101610.38;4953570;29;20035;-96
2023/07/13 14:35:30;;;;;;;2.83;2.50;;;;;;;26.22;45.64;101624.66;4939721;29;20484;-96
2023/07/13 14:38:20;;;;;;;3.17;2.40;;;;;;;26.95;45.54;101622.03;4957599;29;20023;-96
2023/07/13 14:41:07;;;;;;;6.35;2.55;;;;;;;27.50;43.78;101616.78;4925857;29;20027;-96
2023/07/13 14:43:32;;;;;;;4.82;2.70;;;;;;;28.14;42.50;101629.69;4954896;29;20059;-96
2023/07/13 14:46:17;;;;;;;4.63;2.87;;;;;;;28.02;41.52;101624.28;4979450;23;20336;-96
2023/07/13 14:48:44;;;;;;;5.15;2.47;;;;;;;27.50;42.84;101629.75;4937484;29;20040;-96
2023/07/13 14:51:10;;;;;;;4.25;2.70;;;;;;;26.54;45.28;101602.84;4937921;29;20099;-96
2023/07/13 14:53:39;;;;;;;5.63;3.05;;;;;;;26.31;46.03;101638.25;4939327;29;20021;-96
2023/07/13 14:56:12;;;;;;;5.13;2.65;;;;;;;26.13;48.31;101611.06;4919859;29;20031;-96
2023/07/13 14:58:43;;;;;;;7.40;2.90;;;;;;;25.95;48.62;101598.69;4905026;29;20061;-96
2023/07/13 15:01:40;;;;;;;8.45;2.60;;;;;;;25.92;48.24;101604.91;4916357;29;20029;-96
2023/07/13 15:04:10;;;;;;;3.87;2.33;;;;;;;25.44;49.64;101602.59;4916964;29;20033;-96
2023/07/13 15:06:59;;;;;;;5.43;3.23;;;;;;;25.05;50.16;101604.75;4898618;29;20289;-96
2023/07/13 15:09:27;;;;;;;3.83;2.80;;;;;;;24.44;52.39;101617.06;4903502;29;20068;-96
2023/07/13 15:12:00;;;;;;;5.07;2.63;;;;;;;24.43;53.62;101605.28;4917723;29;20028;-95
2023/07/13 15:14:49;;;;;;;6.32;2.58;;;;;;;24.64;52.73;101626.41;4924760;29;20375;-96
2023/07/13 15:17:25;;;;;;;5.78;2.58;;;;;;;24.28;53.40;101603.97;4938908;29;20051;-96
2023/07/13 15:19:56;;;;;;;4.30;2.20;;;;;;;24.39;53.49;101614.50;4914061;29;20019;-96
2023/07/13 15:22:23;;;;;;;3.92;2.50;;;;;;;24.56;52.94;101619.06;4918932;29;20076;-96
2023/07/13 15:24:49;;;;;;;5.10;2.27;;;;;;;24.47;52.56;101597.19;4908497;29;20025;-96
2023/07/13 15:27:14;;;;;;;4.85;2.35;;;;;;;24.37;53.05;101584.72;4915316;29;20020;-96
2023/07/13 15:29:42;;;;;;;3.88;2.25;;;;;;;24.57;53.14;101591.31;4918323;29;20060;-96
2023/07/13 15:32:14;;;;;;;5.82;2.60;;;;;;;24.76;52.48;101626.47;4917926;29;20025;-96
2023/07/13 15:34:41;;;;;;;3.97;2.50;;;;;;;24.42;53.51;101619.31;4917202;29;20028;-96
2023/07/13 15:37:17;;;;;;;5.53;2.53;;;;;;;24.41;54.52;101620.47;4922546;29;20269;-96
2023/07/13 15:39:43;;;;;;;4.13;2.20;;;;;;;24.50;54.43;101607.50;4924285;29;20048;-96
2023/07/13 15:42:16;;;;;;;4.07;2.40;;;;;;;24.67;52.28;101611.22;4921288;29;20020;-93
2023/07/13 15:44:42;;;;;;;7.40;2.65;;;;;;;24.94;51.53;101618.09;4914698;29;20057;-96
2023/07/13 15:47:15;;;;;;;5.40;2.93;;;;;;;25.18;52.07;101594.63;4915022;29;20032;-96
2023/07/13 15:49:43;;;;;;;3.55;2.15;;;;;;;26.14;51.33;101631.88;4915805;29;20036;-96
2023/07/13 15:52:29;;;;;;;5.18;2.67;;;;;;;26.76;49.13;101615.22;4913804;29;20051;-95
2023/07/13 15:55:13;;;;;;;8.32;2.80;;;;;;;27.05;47.81;101599.50;4916482;29;20033;-96
2023/07/13 15:57:44;;;;;;;4.15;2.60;;;;;;;26.94;47.28;101617.69;4915872;29;20045;-96
2023/07/13 16:00:21;;;;;;;6.20;2.65;;;;;;;26.44;48.52;101601.38;4917366;29;20039;-96
2023/07/13 16:02:50;;;;;;;4.05;2.70;;;;;;;26.40;49.24;101605.97;4914569;29;20445;-96
2023/07/13 16:05:19;;;;;;;4.45;2.40;;;;;;;26.31;48.16;101591.56;4912380;29;20040;-96
2023/07/13 16:07:49;;;;;;;5.35;2.38;;;;;;;26.59;45.89;101615.53;4917043;29;20040;-96
2023/07/13 16:10:24;;;;;;;3.93;2.53;;;;;;;26.82;45.81;101623.25;4915395;29;20035;-96
2023/07/13 16:12:50;;;;;;;3.63;2.17;;;;;;;26.37;45.47;101590.19;4913927;29;20329;-96
2023/07/13 16:15:20;;;;;;;5.97;2.30;;;;;;;26.09;45.56;101581.88;4913625;29;20143;-96
2023/07/13 16:17:48;;;;;;;4.32;1.90;;;;;;;25.83;46.73;101596.78;4915124;29;20032;-96
2023/07/13 16:20:14;;;;;;;4.00;2.40;;;;;;;25.66;47.08;101611.53;4910380;29;20032;-96
2023/07/13 16:22:43;;;;;;;5.38;2.67;;;;;;;25.23;46.76;101599.91;4904405;29;20055;-96
2023/07/13 16:25:18;;;;;;;4.55;2.25;;;;;;;25.08;47.57;101615.06;4906590;29;20037;-96
2023/07/13 16:27:49;;;;;;;4.88;2.20;;;;;;;25.22;47.88;101593.59;4920972;29;20059;-96
2023/07/13 16:30:22;;;;;;;9.63;2.80;;;;;;;25.82;47.74;101628.13;4904595;29;20044;-95
2023/07/13 16:32:50;;;;;;;4.38;2.10;;;;;;;26.33;46.22;101594.75;4915391;29;20039;-96
2023/07/13 16:35:20;;;;;;;7.73;2.40;;;;;;;26.87;45.42;101618.31;4913103;29;20047;-96
2023/07/13 16:37:46;;;;;;;4.20;2.40;;;;;;;27.06;44.20;101609.38;4906369;29;20300;-96
2023/07/13 16:40:26;;;;;;;3.50;1.88;;;;;;;27.05;44.47;101616.00;4907279;29;20029;-96
2023/07/13 16:42:54;;;;;;;4.10;2.00;;;;;;;26.76;43.56;101593.22;4908002;29;20099;-96
2023/07/13 16:45:23;;;;;;;3.80;2.10;;;;;;;26.73;43.00;101588.44;4907506;29;20025;-96
2023/07/13 16:47:51;;;;;;;3.08;2.08;;;;;;;26.76;43.54;101595.97;4907651;29;20032;-96
2023/07/13 16:50:22;;;;;;;5.68;2.20;;;;;;;26.56;44.25;101610.72;4908848;29;20040;-96
2023/07/13 16:52:49;;;;;;;4.30;2.20;;;;;;;26.62;44.63;101609.34;4910707;29;20104;-96
2023/07/13 16:55:16;;;;;;;3.47;2.00;;;;;;;26.44;45.15;101611.56;4909630;29;20035;-96
2023/07/13 16:57:44;;;;;;;4.60;2.43;;;;;;;26.35;45.07;101608.16;4905689;29;20367;-95
2023/07/13 17:00:32;;;;;;;3.78;2.55;;;;;;;26.11;45.74;101627.06;4903626;29;20079;-96
2023/07/13 17:03:03;;;;;;;5.25;2.33;;;;;;;25.77;45.92;101609.13;4904979;29;20044;-96
2023/07/13 17:05:30;;;;;;;3.03;2.10;;;;;;;25.51;47.42;101607.50;4911266;29;20024;-96
2023/07/13 17:07:57;;;;;;;7.13;2.40;;;;;;;24.82;47.70;101607.91;4908940;29;20039;-96
2023/07/13 17:10:23;;;;;;;3.60;2.50;;;;;;;24.39;49.72;101614.50;4906461;29;20040;-96
2023/07/13 17:12:54;;;;;;;4.60;2.50;;;;;;;23.97;52.04;101621.53;4905144;29;20025;-96
2023/07/13 17:15:28;;;;;;;5.93;2.40;;;;;;;23.80;53.18;101633.34;4904725;29;20032;-96
2023/07/13 17:18:07;;;;;;;5.57;2.50;;;;;;;23.56;53.12;101595.63;4906727;29;20037;-96
2023/07/13 17:20:44;;;;;;;4.70;2.40;;;;;;;23.58;54.05;101607.03;4907489;29;20044;-95
2023/07/13 17:23:26;;;;;;;7.47;2.10;;;;;;;23.55;54.30;101610.44;4911170;29;20284;-96
2023/07/13 17:25:53;;;;;;;6.50;3.13;;;;;;;23.52;54.81;101619.31;4909513;29;20029;-95
2023/07/13 17:28:22;;;;;;;4.07;2.50;;;;;;;23.20;54.51;101591.38;4908435;29;20029;-96
2023/07/13 17:30:54;;;;;;;4.20;2.00;;;;;;;23.47;56.04;101630.41;4910835;29;20040;-96
2023/07/13 17:33:39;;;;;;;6.47;2.65;;;;;;;23.25;55.77;101633.06;4909605;29;20061;-96
2023/07/13 17:36:15;;;;;;;5.00;2.25;;;;;;;22.99;57.96;101636.59;4908449;29;20063;-96
2023/07/13 17:38:50;;;;;;;4.68;2.63;;;;;;;22.76;58.85;101625.03;4901568;29;20513;-96
2023/07/13 17:41:18;;;;;;;7.85;2.40;;;;;;;22.80;58.29;101620.53;4904479;29;20056;-96
2023/07/13 17:43:55;;;;;;;3.75;2.35;;;;;;;22.98;57.39;101636.94;4904073;29;20048;-96
2023/07/13 17:46:28;;;;;;;6.27;2.40;;;;;;;23.09;57.00;101635.44;4916129;29;20028;-96
2023/07/13 17:48:54;;;;;;;5.63;2.50;;;;;;;23.00;57.47;101618.28;4907041;29;20096;-96
2023/07/13 17:53:56;;;;;;;5.40;2.28;;;;;;;22.88;56.49;101601.72;4982441;23;20056;-95